CYYR

Goose Bay Airport

Goose Bay, Canada
TAF CYYR 211730Z 2118/2218 09005KT P6SM FEW060 SCT260 FM211900 VRB03KT P6SM BKN040 BKN200 TEMPO 2119/2124 P6SM -SHRA FM220000 VRB03KT P6SM BKN030 OVC080 TEMPO 2200/2210 5SM -SHRA BR BKN020 OVC060 PROB30 2200/2204 VRB15G30KT 2SM TSRA BR BKN020 OVC030CB FM221000 06008KT P6SM BKN010 OVC030 FM221600 06008KT P6SM FEW012 BKN030 RMK NXT FCST BY 220000Z
Issued Valid From Valid To
Jul-21 @ 17:30 UTC
(6 hours ago)
Jul-21 @ 18:00 UTC
(5 hours ago)
Jul-22 @ 18:00 UTC
(in 19 hours)
Expired Click to View Jul-21 @ 18:00 to Jul-21 @ 19:00
TAF CYYR 211730Z 2118/2218 09005KT P6SM FEW060 SCT260
Wind Visibility Clouds
90° at 5 knots Greater than 6 miles
  • Few at 6,000' AGL
  • Scattered at 26,000' AGL
Temporary Jul-21 @ 19:00 to Jul-22 @ 00:00
TEMPO 2119/2124 P6SM -SHRA
Visibility Conditions
Greater than 6 miles
  • Light Rain
From Jul-21 @ 19:00 to Jul-22 @ 00:00
FM211900 VRB03KT P6SM BKN040 BKN200
Wind Visibility Clouds
Variable at 3 knots Greater than 6 miles
  • Broken at 4,000' AGL
  • Broken at 20,000' AGL
Probable  (Probability 30%) Jul-22 @ 00:00 to Jul-22 @ 04:00
PROB30 2200/2204 VRB15G30KT 2SM TSRA BR BKN020 OVC030CB
Wind Visibility Clouds Conditions
Variable at 15 knots
 Gusting to 30 knots
2 miles
  • Broken at 2,000' AGL
  • Overcast at 3,000' AGL
  • Thunderstorm
  • Rain
  • Mist
Temporary Jul-22 @ 00:00 to Jul-22 @ 10:00
TEMPO 2200/2210 5SM -SHRA BR BKN020 OVC060
Visibility Clouds Conditions
5 miles
  • Broken at 2,000' AGL
  • Overcast at 6,000' AGL
  • Light Rain
  • Mist
From Jul-22 @ 00:00 to Jul-22 @ 10:00
FM220000 VRB03KT P6SM BKN030 OVC080
Wind Visibility Clouds
Variable at 3 knots Greater than 6 miles
  • Broken at 3,000' AGL
  • Overcast at 8,000' AGL
From Jul-22 @ 10:00 to Jul-22 @ 16:00
FM221000 06008KT P6SM BKN010 OVC030
Wind Visibility Clouds
60° at 8 knots Greater than 6 miles
  • Broken at 1,000' AGL
  • Overcast at 3,000' AGL
From Jul-22 @ 16:00 to Jul-22 @ 18:00
FM221600 06008KT P6SM FEW012 BKN030 RMK NXT FCST BY 220000Z
Wind Visibility Clouds
60° at 8 knots Greater than 6 miles
  • Few at 1,200' AGL
  • Broken at 3,000' AGL
TAF CYYR 211730Z 2118/2218 09005KT P6SM FEW060 SCT260 FM211900 VRB03KT P6SM BKN040 BKN200 TEMPO 2119/2124 P6SM -SHRA FM220000 VRB03KT P6SM BKN030 OVC080 TEMPO 2200/2210 5SM -SHRA BR BKN020 OVC060 PROB30 2200/2204 VRB15G30KT 2SM TSRA BR BKN020 OVC030CB FM221000 06008KT P6SM BKN010 OVC030 FM221600 06008KT P6SM FEW012 BKN030 RMK NXT FCST BY 220000Z
Issued Jul-21 @ 17:30 UTC
(6 hours ago)
Valid From Jul-21 @ 18:00 UTC
(5 hours ago)
Valid To Jul-22 @ 18:00 UTC
(in 19 hours)
Jul-21 @ 18:00 - Jul-21 @ 19:00
Wind Visibility
90° at 5 knots Greater than 6 miles
Clouds
  • Few at 6,000' AGL
  • Scattered at 26,000' AGL
Temporary Jul-21 @ 19:00 - Jul-22 @ 00:00
Conditions
  • Light Rain
From Jul-21 @ 19:00 - Jul-22 @ 00:00
Wind Visibility
Variable at 3 knots Greater than 6 miles
Clouds
  • Broken at 4,000' AGL
  • Broken at 20,000' AGL
Probability 30% Probable Jul-22 @ 00:00 - Jul-22 @ 04:00
Wind Visibility
Variable at 15 knots
 Gusting to 30 knots
2 miles
Clouds
  • Broken at 2,000' AGL
  • Overcast at 3,000' AGL
Conditions
  • Thunderstorm
  • Rain
  • Mist
Temporary Jul-22 @ 00:00 - Jul-22 @ 10:00
Clouds
  • Broken at 2,000' AGL
  • Overcast at 6,000' AGL
Conditions
  • Light Rain
  • Mist
From Jul-22 @ 00:00 - Jul-22 @ 10:00
Wind Visibility
Variable at 3 knots Greater than 6 miles
Clouds
  • Broken at 3,000' AGL
  • Overcast at 8,000' AGL
From Jul-22 @ 10:00 - Jul-22 @ 16:00
Wind Visibility
60° at 8 knots Greater than 6 miles
Clouds
  • Broken at 1,000' AGL
  • Overcast at 3,000' AGL
From Jul-22 @ 16:00 - Jul-22 @ 18:00
Wind Visibility
60° at 8 knots Greater than 6 miles
Clouds
  • Few at 1,200' AGL
  • Broken at 3,000' AGL